Nonthaburi, Thailand
Current Conditions -  °F | °C
As of 4:30 AM on Thursday 18 Dec 2014 (Local Time) from VTBD Reporting Station
Broken Clouds Broken Clouds  
Wind Chill: 72°   Ceiling: 30000
Heat Index: 72°   Visibility: 6mi
Dew Point: 54°   Wind: 8mph
Humidity: 53%   Direction: 20°NNE
Pressure: 29.97"   Gusts: NA
Location:  13.84°N, 100.52°E
Report Text: VTBD 172130Z 02007KT 9999 FEW025 SCT110 BKN300 22/12 Q1015 NOSIG
Loading
Personal Weather Stations






























Interactive Weather Map New forecast layout! Learn more

10-Day Weather Forecast

Advertisements
Track Severe Weather on mobile